sensor_id;sensor_type;location;lat;lon;timestamp;temperature;humidity
20158;DHT22;10239;56.820;24.416;2023-08-07T00:00:27;26.30;99.90
20158;DHT22;10239;56.820;24.416;2023-08-07T00:02:55;26.20;99.90
20158;DHT22;10239;56.820;24.416;2023-08-07T00:05:23;26.10;99.90
20158;DHT22;10239;56.820;24.416;2023-08-07T00:07:51;26.00;99.90
20158;DHT22;10239;56.820;24.416;2023-08-07T00:10:20;26.10;99.90
20158;DHT22;10239;56.820;24.416;2023-08-07T00:12:47;26.30;99.90
20158;DHT22;10239;56.820;24.416;2023-08-07T00:15:15;26.10;99.90
20158;DHT22;10239;56.820;24.416;2023-08-07T00:17:42;26.10;99.90
20158;DHT22;10239;56.820;24.416;2023-08-07T00:20:10;25.90;99.90
20158;DHT22;10239;56.820;24.416;2023-08-07T00:22:38;26.00;99.90
20158;DHT22;10239;56.820;24.416;2023-08-07T00:25:05;26.10;99.90
20158;DHT22;10239;56.820;24.416;2023-08-07T00:27:33;26.10;99.90
20158;DHT22;10239;56.820;24.416;2023-08-07T00:30:01;26.00;99.90
20158;DHT22;10239;56.820;24.416;2023-08-07T00:32:29;26.00;99.90
20158;DHT22;10239;56.820;24.416;2023-08-07T00:34:57;26.00;99.90
20158;DHT22;10239;56.820;24.416;2023-08-07T00:37:24;26.30;99.90
20158;DHT22;10239;56.820;24.416;2023-08-07T00:39:52;26.00;99.90
20158;DHT22;10239;56.820;24.416;2023-08-07T00:42:19;25.90;99.90
20158;DHT22;10239;56.820;24.416;2023-08-07T00:44:47;25.90;99.90
20158;DHT22;10239;56.820;24.416;2023-08-07T00:47:14;26.00;99.90
20158;DHT22;10239;56.820;24.416;2023-08-07T00:49:42;26.00;99.90
20158;DHT22;10239;56.820;24.416;2023-08-07T00:52:10;26.00;99.90
20158;DHT22;10239;56.820;24.416;2023-08-07T00:54:38;26.00;99.90
20158;DHT22;10239;56.820;24.416;2023-08-07T00:57:13;25.90;99.90
20158;DHT22;10239;56.820;24.416;2023-08-07T00:59:44;25.70;99.90
20158;DHT22;10239;56.820;24.416;2023-08-07T01:02:12;25.90;99.90
20158;DHT22;10239;56.820;24.416;2023-08-07T01:04:41;25.90;99.90
20158;DHT22;10239;56.820;24.416;2023-08-07T01:07:09;25.80;99.90
20158;DHT22;10239;56.820;24.416;2023-08-07T01:09:36;25.90;99.90
20158;DHT22;10239;56.820;24.416;2023-08-07T01:12:13;26.00;99.90
20158;DHT22;10239;56.820;24.416;2023-08-07T01:17:29;25.90;99.90
20158;DHT22;10239;56.820;24.416;2023-08-07T01:19:57;25.80;99.90
20158;DHT22;10239;56.820;24.416;2023-08-07T01:22:25;25.80;99.90
20158;DHT22;10239;56.820;24.416;2023-08-07T01:24:52;25.70;99.90
20158;DHT22;10239;56.820;24.416;2023-08-07T01:32:41;25.90;99.90
20158;DHT22;10239;56.820;24.416;2023-08-07T01:35:12;25.80;99.90
20158;DHT22;10239;56.820;24.416;2023-08-07T01:37:42;25.80;99.90
20158;DHT22;10239;56.820;24.416;2023-08-07T01:40:12;25.70;99.90
20158;DHT22;10239;56.820;24.416;2023-08-07T01:42:41;25.80;99.90
20158;DHT22;10239;56.820;24.416;2023-08-07T01:45:09;25.70;99.90
20158;DHT22;10239;56.820;24.416;2023-08-07T01:47:37;25.70;99.90
20158;DHT22;10239;56.820;24.416;2023-08-07T01:50:05;25.80;99.90
20158;DHT22;10239;56.820;24.416;2023-08-07T01:52:33;25.90;99.90
20158;DHT22;10239;56.820;24.416;2023-08-07T01:55:01;25.90;99.90
20158;DHT22;10239;56.820;24.416;2023-08-07T01:57:28;25.80;99.90
20158;DHT22;10239;56.820;24.416;2023-08-07T01:59:58;25.80;99.90
20158;DHT22;10239;56.820;24.416;2023-08-07T02:02:25;25.60;99.90
20158;DHT22;10239;56.820;24.416;2023-08-07T02:04:53;25.70;99.90
20158;DHT22;10239;56.820;24.416;2023-08-07T02:07:21;25.80;99.90
20158;DHT22;10239;56.820;24.416;2023-08-07T02:09:48;25.80;99.90
20158;DHT22;10239;56.820;24.416;2023-08-07T02:12:16;25.60;99.90
20158;DHT22;10239;56.820;24.416;2023-08-07T02:14:43;25.70;99.90
20158;DHT22;10239;56.820;24.416;2023-08-07T02:17:11;25.70;99.90
20158;DHT22;10239;56.820;24.416;2023-08-07T02:19:39;25.80;99.90
20158;DHT22;10239;56.820;24.416;2023-08-07T02:22:06;25.60;99.90
20158;DHT22;10239;56.820;24.416;2023-08-07T02:24:34;25.70;99.90
20158;DHT22;10239;56.820;24.416;2023-08-07T02:27:02;25.70;99.90
20158;DHT22;10239;56.820;24.416;2023-08-07T02:29:30;25.70;99.90
20158;DHT22;10239;56.820;24.416;2023-08-07T02:32:04;26.10;99.90
20158;DHT22;10239;56.820;24.416;2023-08-07T02:34:32;25.70;99.90
20158;DHT22;10239;56.820;24.416;2023-08-07T02:37:00;25.50;99.90
20158;DHT22;10239;56.820;24.416;2023-08-07T02:39:28;25.60;99.90
20158;DHT22;10239;56.820;24.416;2023-08-07T02:41:55;25.80;99.90
20158;DHT22;10239;56.820;24.416;2023-08-07T02:44:23;25.70;99.90
20158;DHT22;10239;56.820;24.416;2023-08-07T02:46:50;25.80;99.90
20158;DHT22;10239;56.820;24.416;2023-08-07T02:49:18;25.80;99.90
20158;DHT22;10239;56.820;24.416;2023-08-07T02:51:46;25.70;99.90
20158;DHT22;10239;56.820;24.416;2023-08-07T02:54:13;25.70;99.90
20158;DHT22;10239;56.820;24.416;2023-08-07T02:56:41;25.70;99.90
20158;DHT22;10239;56.820;24.416;2023-08-07T02:59:09;25.60;99.90
20158;DHT22;10239;56.820;24.416;2023-08-07T03:01:37;25.60;99.90
20158;DHT22;10239;56.820;24.416;2023-08-07T03:04:04;25.70;99.90
20158;DHT22;10239;56.820;24.416;2023-08-07T03:06:32;25.70;99.90
20158;DHT22;10239;56.820;24.416;2023-08-07T03:09:00;25.70;99.90
20158;DHT22;10239;56.820;24.416;2023-08-07T03:11:27;25.70;99.90
20158;DHT22;10239;56.820;24.416;2023-08-07T03:13:55;25.90;99.90
20158;DHT22;10239;56.820;24.416;2023-08-07T03:16:23;25.70;99.90
20158;DHT22;10239;56.820;24.416;2023-08-07T03:18:50;25.70;99.90
20158;DHT22;10239;56.820;24.416;2023-08-07T03:21:19;25.90;99.90
20158;DHT22;10239;56.820;24.416;2023-08-07T03:23:46;26.10;99.90
20158;DHT22;10239;56.820;24.416;2023-08-07T03:26:14;25.90;99.90
20158;DHT22;10239;56.820;24.416;2023-08-07T03:28:48;26.10;99.90
20158;DHT22;10239;56.820;24.416;2023-08-07T03:31:16;26.00;99.90
20158;DHT22;10239;56.820;24.416;2023-08-07T03:33:48;26.10;99.90
20158;DHT22;10239;56.820;24.416;2023-08-07T03:36:18;26.10;99.90
20158;DHT22;10239;56.820;24.416;2023-08-07T03:38:47;26.20;99.90
20158;DHT22;10239;56.820;24.416;2023-08-07T03:41:15;26.00;99.90
20158;DHT22;10239;56.820;24.416;2023-08-07T03:43:43;26.10;99.90
20158;DHT22;10239;56.820;24.416;2023-08-07T03:46:11;26.20;99.90
20158;DHT22;10239;56.820;24.416;2023-08-07T03:48:38;26.20;99.90
20158;DHT22;10239;56.820;24.416;2023-08-07T03:51:07;26.40;99.90
20158;DHT22;10239;56.820;24.416;2023-08-07T03:53:43;26.50;99.90
20158;DHT22;10239;56.820;24.416;2023-08-07T03:56:10;26.30;99.90
20158;DHT22;10239;56.820;24.416;2023-08-07T03:58:38;26.30;99.90
20158;DHT22;10239;56.820;24.416;2023-08-07T04:01:06;26.40;99.90
20158;DHT22;10239;56.820;24.416;2023-08-07T04:03:34;26.50;99.90
20158;DHT22;10239;56.820;24.416;2023-08-07T04:06:03;26.20;99.90
20158;DHT22;10239;56.820;24.416;2023-08-07T04:08:34;26.20;99.90
20158;DHT22;10239;56.820;24.416;2023-08-07T04:11:04;26.60;99.90
20158;DHT22;10239;56.820;24.416;2023-08-07T04:13:33;26.50;99.90
20158;DHT22;10239;56.820;24.416;2023-08-07T04:16:02;26.50;99.90
20158;DHT22;10239;56.820;24.416;2023-08-07T04:18:33;26.70;99.90
20158;DHT22;10239;56.820;24.416;2023-08-07T04:21:02;26.70;99.90
20158;DHT22;10239;56.820;24.416;2023-08-07T04:23:32;26.50;99.90
20158;DHT22;10239;56.820;24.416;2023-08-07T04:25:59;26.50;99.90
20158;DHT22;10239;56.820;24.416;2023-08-07T04:28:28;26.50;99.90
20158;DHT22;10239;56.820;24.416;2023-08-07T04:30:56;27.00;99.90
20158;DHT22;10239;56.820;24.416;2023-08-07T04:33:25;27.20;99.90
20158;DHT22;10239;56.820;24.416;2023-08-07T04:35:52;27.30;99.90
20158;DHT22;10239;56.820;24.416;2023-08-07T04:38:20;27.10;99.90
20158;DHT22;10239;56.820;24.416;2023-08-07T04:40:49;27.20;99.90
20158;DHT22;10239;56.820;24.416;2023-08-07T04:43:20;27.30;99.90
20158;DHT22;10239;56.820;24.416;2023-08-07T04:45:48;27.60;99.90
20158;DHT22;10239;56.820;24.416;2023-08-07T04:48:16;27.60;99.90
20158;DHT22;10239;56.820;24.416;2023-08-07T04:50:45;27.70;99.90
20158;DHT22;10239;56.820;24.416;2023-08-07T04:53:13;27.50;99.90
20158;DHT22;10239;56.820;24.416;2023-08-07T04:55:40;27.60;99.90
20158;DHT22;10239;56.820;24.416;2023-08-07T04:58:08;27.40;99.90
20158;DHT22;10239;56.820;24.416;2023-08-07T05:00:36;27.30;99.90
20158;DHT22;10239;56.820;24.416;2023-08-07T05:03:04;27.00;99.90
20158;DHT22;10239;56.820;24.416;2023-08-07T05:05:32;26.80;99.90
20158;DHT22;10239;56.820;24.416;2023-08-07T05:07:59;26.60;99.90
20158;DHT22;10239;56.820;24.416;2023-08-07T05:10:27;26.50;99.90
20158;DHT22;10239;56.820;24.416;2023-08-07T05:12:55;26.50;99.90
20158;DHT22;10239;56.820;24.416;2023-08-07T05:15:23;26.60;99.90
20158;DHT22;10239;56.820;24.416;2023-08-07T05:17:52;27.50;99.90
20158;DHT22;10239;56.820;24.416;2023-08-07T05:20:19;28.00;99.90
20158;DHT22;10239;56.820;24.416;2023-08-07T05:22:47;28.60;99.90
20158;DHT22;10239;56.820;24.416;2023-08-07T05:25:16;29.00;99.90
20158;DHT22;10239;56.820;24.416;2023-08-07T05:27:45;29.30;99.90
20158;DHT22;10239;56.820;24.416;2023-08-07T05:30:14;29.90;99.90
20158;DHT22;10239;56.820;24.416;2023-08-07T05:32:42;30.30;99.90
20158;DHT22;10239;56.820;24.416;2023-08-07T05:35:10;30.30;99.90
20158;DHT22;10239;56.820;24.416;2023-08-07T05:37:38;30.40;99.90
20158;DHT22;10239;56.820;24.416;2023-08-07T05:40:06;31.00;99.90
20158;DHT22;10239;56.820;24.416;2023-08-07T05:42:34;31.80;99.90
20158;DHT22;10239;56.820;24.416;2023-08-07T05:45:03;32.10;99.90
20158;DHT22;10239;56.820;24.416;2023-08-07T05:47:32;31.80;99.90
20158;DHT22;10239;56.820;24.416;2023-08-07T05:50:00;32.60;99.90
20158;DHT22;10239;56.820;24.416;2023-08-07T05:52:28;32.80;99.90
20158;DHT22;10239;56.820;24.416;2023-08-07T05:54:56;32.80;99.90
20158;DHT22;10239;56.820;24.416;2023-08-07T05:57:24;33.00;99.90
20158;DHT22;10239;56.820;24.416;2023-08-07T05:59:52;33.60;99.90
20158;DHT22;10239;56.820;24.416;2023-08-07T06:02:20;33.60;99.90
20158;DHT22;10239;56.820;24.416;2023-08-07T06:04:47;33.40;99.90
20158;DHT22;10239;56.820;24.416;2023-08-07T06:07:15;34.10;99.90
20158;DHT22;10239;56.820;24.416;2023-08-07T06:09:43;34.40;99.90
20158;DHT22;10239;56.820;24.416;2023-08-07T06:12:11;33.80;99.90
20158;DHT22;10239;56.820;24.416;2023-08-07T06:14:39;33.90;99.90
20158;DHT22;10239;56.820;24.416;2023-08-07T06:17:07;34.60;99.90
20158;DHT22;10239;56.820;24.416;2023-08-07T06:19:35;34.90;99.90
20158;DHT22;10239;56.820;24.416;2023-08-07T06:22:03;34.00;99.90
20158;DHT22;10239;56.820;24.416;2023-08-07T06:24:30;34.50;99.90
20158;DHT22;10239;56.820;24.416;2023-08-07T06:26:58;34.30;99.90
20158;DHT22;10239;56.820;24.416;2023-08-07T06:29:26;35.00;99.90
20158;DHT22;10239;56.820;24.416;2023-08-07T06:31:53;34.90;99.90
20158;DHT22;10239;56.820;24.416;2023-08-07T06:34:22;35.40;99.90
20158;DHT22;10239;56.820;24.416;2023-08-07T06:36:49;34.80;99.90
20158;DHT22;10239;56.820;24.416;2023-08-07T06:39:17;34.90;99.90
20158;DHT22;10239;56.820;24.416;2023-08-07T06:41:44;35.90;99.90
20158;DHT22;10239;56.820;24.416;2023-08-07T06:44:14;36.00;99.90
20158;DHT22;10239;56.820;24.416;2023-08-07T06:46:41;36.30;99.90
20158;DHT22;10239;56.820;24.416;2023-08-07T06:49:09;36.60;99.90
20158;DHT22;10239;56.820;24.416;2023-08-07T06:51:36;36.20;99.90
20158;DHT22;10239;56.820;24.416;2023-08-07T06:54:04;36.10;99.90
20158;DHT22;10239;56.820;24.416;2023-08-07T06:56:31;36.50;99.90
20158;DHT22;10239;56.820;24.416;2023-08-07T06:58:59;36.50;99.90
20158;DHT22;10239;56.820;24.416;2023-08-07T07:01:27;37.00;99.90
20158;DHT22;10239;56.820;24.416;2023-08-07T07:03:55;37.00;99.90
20158;DHT22;10239;56.820;24.416;2023-08-07T07:06:23;37.30;99.90
20158;DHT22;10239;56.820;24.416;2023-08-07T07:08:53;37.60;99.90
20158;DHT22;10239;56.820;24.416;2023-08-07T07:11:23;37.60;99.90
20158;DHT22;10239;56.820;24.416;2023-08-07T07:13:52;37.80;99.90
20158;DHT22;10239;56.820;24.416;2023-08-07T07:16:20;37.20;99.90
20158;DHT22;10239;56.820;24.416;2023-08-07T07:18:50;37.50;99.90
20158;DHT22;10239;56.820;24.416;2023-08-07T07:21:18;37.20;99.90
20158;DHT22;10239;56.820;24.416;2023-08-07T07:23:46;36.80;99.90
20158;DHT22;10239;56.820;24.416;2023-08-07T07:26:13;36.50;99.90
20158;DHT22;10239;56.820;24.416;2023-08-07T07:28:41;37.30;99.90
20158;DHT22;10239;56.820;24.416;2023-08-07T07:31:08;36.60;99.90
20158;DHT22;10239;56.820;24.416;2023-08-07T07:33:39;36.30;99.90
20158;DHT22;10239;56.820;24.416;2023-08-07T07:36:16;36.90;99.90
20158;DHT22;10239;56.820;24.416;2023-08-07T07:38:46;37.30;99.90
20158;DHT22;10239;56.820;24.416;2023-08-07T07:41:15;38.00;99.90
20158;DHT22;10239;56.820;24.416;2023-08-07T07:43:43;37.50;99.90
20158;DHT22;10239;56.820;24.416;2023-08-07T07:46:11;37.80;99.90
20158;DHT22;10239;56.820;24.416;2023-08-07T07:48:39;38.10;99.90
20158;DHT22;10239;56.820;24.416;2023-08-07T07:51:06;38.60;99.90
20158;DHT22;10239;56.820;24.416;2023-08-07T07:53:34;38.30;99.90
20158;DHT22;10239;56.820;24.416;2023-08-07T07:56:02;38.10;99.90
20158;DHT22;10239;56.820;24.416;2023-08-07T07:58:30;37.80;99.90
20158;DHT22;10239;56.820;24.416;2023-08-07T08:00:57;37.90;99.90
20158;DHT22;10239;56.820;24.416;2023-08-07T08:03:25;37.70;99.90
20158;DHT22;10239;56.820;24.416;2023-08-07T08:05:53;38.30;99.90
20158;DHT22;10239;56.820;24.416;2023-08-07T08:08:20;38.80;99.90
20158;DHT22;10239;56.820;24.416;2023-08-07T08:10:48;38.80;99.90
20158;DHT22;10239;56.820;24.416;2023-08-07T08:13:18;37.20;99.90
20158;DHT22;10239;56.820;24.416;2023-08-07T08:15:45;37.80;99.90
20158;DHT22;10239;56.820;24.416;2023-08-07T08:18:13;38.60;99.90
20158;DHT22;10239;56.820;24.416;2023-08-07T08:20:41;38.80;99.90
20158;DHT22;10239;56.820;24.416;2023-08-07T08:23:09;38.80;99.90
20158;DHT22;10239;56.820;24.416;2023-08-07T08:25:36;38.80;99.90
20158;DHT22;10239;56.820;24.416;2023-08-07T08:28:04;38.80;99.90
20158;DHT22;10239;56.820;24.416;2023-08-07T08:30:32;38.10;99.90
20158;DHT22;10239;56.820;24.416;2023-08-07T08:32:59;38.30;99.90
20158;DHT22;10239;56.820;24.416;2023-08-07T08:35:27;37.30;99.90
20158;DHT22;10239;56.820;24.416;2023-08-07T08:37:54;37.10;99.90
20158;DHT22;10239;56.820;24.416;2023-08-07T08:40:24;37.50;99.90
20158;DHT22;10239;56.820;24.416;2023-08-07T08:42:52;36.40;99.90
20158;DHT22;10239;56.820;24.416;2023-08-07T08:45:25;36.40;99.90
20158;DHT22;10239;56.820;24.416;2023-08-07T08:48:02;36.20;99.90
20158;DHT22;10239;56.820;24.416;2023-08-07T08:50:32;36.10;99.90
20158;DHT22;10239;56.820;24.416;2023-08-07T08:53:02;35.20;99.90
20158;DHT22;10239;56.820;24.416;2023-08-07T08:55:32;35.20;99.90
20158;DHT22;10239;56.820;24.416;2023-08-07T08:58:03;34.90;99.90
20158;DHT22;10239;56.820;24.416;2023-08-07T09:00:32;35.00;99.90
20158;DHT22;10239;56.820;24.416;2023-08-07T09:03:02;34.40;99.90
20158;DHT22;10239;56.820;24.416;2023-08-07T09:05:31;34.20;99.90
20158;DHT22;10239;56.820;24.416;2023-08-07T09:07:59;33.70;99.90
20158;DHT22;10239;56.820;24.416;2023-08-07T09:10:29;34.50;99.90
20158;DHT22;10239;56.820;24.416;2023-08-07T09:13:02;35.40;99.90
20158;DHT22;10239;56.820;24.416;2023-08-07T09:15:33;35.20;99.90
20158;DHT22;10239;56.820;24.416;2023-08-07T09:18:05;34.80;99.90
20158;DHT22;10239;56.820;24.416;2023-08-07T09:20:36;35.40;99.90
20158;DHT22;10239;56.820;24.416;2023-08-07T09:23:06;35.70;99.90
20158;DHT22;10239;56.820;24.416;2023-08-07T09:25:34;36.10;99.90
20158;DHT22;10239;56.820;24.416;2023-08-07T09:28:06;36.10;99.90
20158;DHT22;10239;56.820;24.416;2023-08-07T09:30:35;35.80;99.90
20158;DHT22;10239;56.820;24.416;2023-08-07T09:33:05;36.40;99.90
20158;DHT22;10239;56.820;24.416;2023-08-07T09:35:33;36.40;99.90
20158;DHT22;10239;56.820;24.416;2023-08-07T09:38:01;36.30;99.90
20158;DHT22;10239;56.820;24.416;2023-08-07T09:40:29;36.90;99.90
20158;DHT22;10239;56.820;24.416;2023-08-07T09:43:01;37.30;99.90
20158;DHT22;10239;56.820;24.416;2023-08-07T09:45:29;37.50;99.90
20158;DHT22;10239;56.820;24.416;2023-08-07T09:48:03;37.90;99.90
20158;DHT22;10239;56.820;24.416;2023-08-07T09:50:31;38.30;99.90
20158;DHT22;10239;56.820;24.416;2023-08-07T09:52:59;37.80;99.90
20158;DHT22;10239;56.820;24.416;2023-08-07T09:55:27;37.70;99.90
20158;DHT22;10239;56.820;24.416;2023-08-07T09:57:55;37.50;99.90
20158;DHT22;10239;56.820;24.416;2023-08-07T10:00:23;37.00;99.90
20158;DHT22;10239;56.820;24.416;2023-08-07T10:02:51;36.30;99.90
20158;DHT22;10239;56.820;24.416;2023-08-07T10:05:19;36.40;99.90
20158;DHT22;10239;56.820;24.416;2023-08-07T10:07:47;36.60;99.90
20158;DHT22;10239;56.820;24.416;2023-08-07T10:10:16;36.50;99.90
20158;DHT22;10239;56.820;24.416;2023-08-07T10:12:45;36.10;99.90
20158;DHT22;10239;56.820;24.416;2023-08-07T10:15:15;36.00;99.90
20158;DHT22;10239;56.820;24.416;2023-08-07T10:17:43;35.40;99.90
20158;DHT22;10239;56.820;24.416;2023-08-07T10:20:12;35.50;99.90
20158;DHT22;10239;56.820;24.416;2023-08-07T10:22:41;35.70;99.90
20158;DHT22;10239;56.820;24.416;2023-08-07T10:25:09;36.30;99.90
20158;DHT22;10239;56.820;24.416;2023-08-07T10:27:38;35.50;99.90
20158;DHT22;10239;56.820;24.416;2023-08-07T10:30:09;34.60;99.90
20158;DHT22;10239;56.820;24.416;2023-08-07T10:32:41;34.50;99.90
20158;DHT22;10239;56.820;24.416;2023-08-07T10:35:10;34.20;99.90
20158;DHT22;10239;56.820;24.416;2023-08-07T10:37:41;34.20;99.90
20158;DHT22;10239;56.820;24.416;2023-08-07T10:40:11;34.00;99.90
20158;DHT22;10239;56.820;24.416;2023-08-07T10:42:57;33.80;99.90
20158;DHT22;10239;56.820;24.416;2023-08-07T10:45:27;33.70;99.90
20158;DHT22;10239;56.820;24.416;2023-08-07T10:50:31;32.80;99.90
20158;DHT22;10239;56.820;24.416;2023-08-07T11:34:52;22.40;99.90
20158;DHT22;10239;56.820;24.416;2023-08-07T11:37:20;21.70;99.90
20158;DHT22;10239;56.820;24.416;2023-08-07T11:39:48;21.80;99.90
20158;DHT22;10239;56.820;24.416;2023-08-07T11:42:16;22.00;99.90
20158;DHT22;10239;56.820;24.416;2023-08-07T11:44:43;21.90;99.90
20158;DHT22;10239;56.820;24.416;2023-08-07T11:47:12;22.10;99.90
20158;DHT22;10239;56.820;24.416;2023-08-07T11:49:39;22.50;99.90
20158;DHT22;10239;56.820;24.416;2023-08-07T11:52:07;22.80;99.90
20158;DHT22;10239;56.820;24.416;2023-08-07T11:54:35;23.00;99.90
20158;DHT22;10239;56.820;24.416;2023-08-07T11:57:02;23.20;99.90
20158;DHT22;10239;56.820;24.416;2023-08-07T11:59:30;23.30;99.90
20158;DHT22;10239;56.820;24.416;2023-08-07T12:01:57;23.30;99.90
20158;DHT22;10239;56.820;24.416;2023-08-07T12:04:25;23.30;99.90
20158;DHT22;10239;56.820;24.416;2023-08-07T12:06:54;23.30;99.90
20158;DHT22;10239;56.820;24.416;2023-08-07T12:09:22;23.40;99.90
20158;DHT22;10239;56.820;24.416;2023-08-07T12:11:50;23.60;99.90
20158;DHT22;10239;56.820;24.416;2023-08-07T12:14:23;23.80;99.90
20158;DHT22;10239;56.820;24.416;2023-08-07T12:16:50;24.00;99.90
20158;DHT22;10239;56.820;24.416;2023-08-07T12:19:17;24.30;99.90
20158;DHT22;10239;56.820;24.416;2023-08-07T12:21:46;24.50;99.90
20158;DHT22;10239;56.820;24.416;2023-08-07T12:36:41;24.60;99.90
20158;DHT22;10239;56.820;24.416;2023-08-07T12:39:10;24.70;99.90
20158;DHT22;10239;56.820;24.416;2023-08-07T12:41:42;24.70;99.90
20158;DHT22;10239;56.820;24.416;2023-08-07T12:44:31;24.60;99.90
20158;DHT22;10239;56.820;24.416;2023-08-07T12:46:59;24.60;99.90
20158;DHT22;10239;56.820;24.416;2023-08-07T12:49:27;24.50;99.90
20158;DHT22;10239;56.820;24.416;2023-08-07T12:52:05;24.40;99.90
20158;DHT22;10239;56.820;24.416;2023-08-07T12:54:34;24.20;99.90
20158;DHT22;10239;56.820;24.416;2023-08-07T12:57:03;24.10;99.90
20158;DHT22;10239;56.820;24.416;2023-08-07T12:59:31;24.00;99.90
20158;DHT22;10239;56.820;24.416;2023-08-07T13:02:01;23.80;99.90
20158;DHT22;10239;56.820;24.416;2023-08-07T13:04:31;23.40;99.90
20158;DHT22;10239;56.820;24.416;2023-08-07T13:07:01;23.20;99.90
20158;DHT22;10239;56.820;24.416;2023-08-07T13:09:33;23.30;99.90
20158;DHT22;10239;56.820;24.416;2023-08-07T13:12:02;23.40;99.90
20158;DHT22;10239;56.820;24.416;2023-08-07T13:14:42;23.40;99.90
20158;DHT22;10239;56.820;24.416;2023-08-07T13:17:13;23.50;99.90
20158;DHT22;10239;56.820;24.416;2023-08-07T13:19:43;23.40;99.90
20158;DHT22;10239;56.820;24.416;2023-08-07T13:22:11;23.30;99.90
20158;DHT22;10239;56.820;24.416;2023-08-07T13:24:40;23.20;99.90
20158;DHT22;10239;56.820;24.416;2023-08-07T13:27:15;23.20;99.90
20158;DHT22;10239;56.820;24.416;2023-08-07T13:29:52;23.00;99.90
20158;DHT22;10239;56.820;24.416;2023-08-07T13:32:27;22.80;99.90
20158;DHT22;10239;56.820;24.416;2023-08-07T13:35:14;22.90;99.90
20158;DHT22;10239;56.820;24.416;2023-08-07T14:01:46;22.00;99.90
20158;DHT22;10239;56.820;24.416;2023-08-07T14:04:16;21.70;99.90
20158;DHT22;10239;56.820;24.416;2023-08-07T14:06:45;21.80;99.90
20158;DHT22;10239;56.820;24.416;2023-08-07T14:09:13;21.60;99.90
20158;DHT22;10239;56.820;24.416;2023-08-07T14:11:41;21.40;99.90
20158;DHT22;10239;56.820;24.416;2023-08-07T14:14:09;21.50;99.90
20158;DHT22;10239;56.820;24.416;2023-08-07T14:16:37;21.70;99.90
20158;DHT22;10239;56.820;24.416;2023-08-07T14:19:06;21.80;99.90
20158;DHT22;10239;56.820;24.416;2023-08-07T14:21:35;21.80;99.90
20158;DHT22;10239;56.820;24.416;2023-08-07T14:24:03;21.90;99.90
20158;DHT22;10239;56.820;24.416;2023-08-07T14:26:31;22.00;99.90
20158;DHT22;10239;56.820;24.416;2023-08-07T14:28:59;22.00;99.90
20158;DHT22;10239;56.820;24.416;2023-08-07T14:31:26;22.00;99.90
20158;DHT22;10239;56.820;24.416;2023-08-07T14:33:54;22.10;99.90
20158;DHT22;10239;56.820;24.416;2023-08-07T14:36:21;22.20;99.90
20158;DHT22;10239;56.820;24.416;2023-08-07T14:38:49;22.10;99.90
20158;DHT22;10239;56.820;24.416;2023-08-07T14:41:18;21.80;99.90
20158;DHT22;10239;56.820;24.416;2023-08-07T14:43:49;21.70;99.90
20158;DHT22;10239;56.820;24.416;2023-08-07T14:46:17;21.70;99.90
20158;DHT22;10239;56.820;24.416;2023-08-07T14:48:46;21.60;99.90
20158;DHT22;10239;56.820;24.416;2023-08-07T14:51:14;21.50;99.90
20158;DHT22;10239;56.820;24.416;2023-08-07T14:53:42;21.60;99.90
20158;DHT22;10239;56.820;24.416;2023-08-07T14:56:09;21.60;99.90
20158;DHT22;10239;56.820;24.416;2023-08-07T14:58:39;21.60;99.90
20158;DHT22;10239;56.820;24.416;2023-08-07T15:01:07;21.70;99.90
20158;DHT22;10239;56.820;24.416;2023-08-07T15:03:34;21.60;99.90
20158;DHT22;10239;56.820;24.416;2023-08-07T15:06:02;21.50;99.90
20158;DHT22;10239;56.820;24.416;2023-08-07T15:08:30;21.70;99.90
20158;DHT22;10239;56.820;24.416;2023-08-07T15:10:57;21.80;99.90
20158;DHT22;10239;56.820;24.416;2023-08-07T15:13:25;21.80;99.90
20158;DHT22;10239;56.820;24.416;2023-08-07T15:15:53;21.90;99.90
20158;DHT22;10239;56.820;24.416;2023-08-07T15:18:20;21.90;99.90
20158;DHT22;10239;56.820;24.416;2023-08-07T15:20:48;22.00;99.90
20158;DHT22;10239;56.820;24.416;2023-08-07T15:23:16;21.80;99.90
20158;DHT22;10239;56.820;24.416;2023-08-07T15:25:44;21.90;99.90
20158;DHT22;10239;56.820;24.416;2023-08-07T15:28:11;21.70;99.90
20158;DHT22;10239;56.820;24.416;2023-08-07T15:30:39;22.00;99.90
20158;DHT22;10239;56.820;24.416;2023-08-07T15:33:14;21.80;99.90
20158;DHT22;10239;56.820;24.416;2023-08-07T15:35:43;21.60;99.90
20158;DHT22;10239;56.820;24.416;2023-08-07T15:38:10;21.80;99.90
20158;DHT22;10239;56.820;24.416;2023-08-07T15:40:39;21.70;99.90
20158;DHT22;10239;56.820;24.416;2023-08-07T15:43:08;22.00;99.90
20158;DHT22;10239;56.820;24.416;2023-08-07T15:45:37;22.10;99.90
20158;DHT22;10239;56.820;24.416;2023-08-07T15:48:05;22.10;99.90
20158;DHT22;10239;56.820;24.416;2023-08-07T15:50:34;22.20;99.90
20158;DHT22;10239;56.820;24.416;2023-08-07T15:53:07;22.10;99.90
20158;DHT22;10239;56.820;24.416;2023-08-07T15:55:35;22.20;99.90
20158;DHT22;10239;56.820;24.416;2023-08-07T15:58:03;21.80;99.90
20158;DHT22;10239;56.820;24.416;2023-08-07T16:00:33;22.00;99.90
20158;DHT22;10239;56.820;24.416;2023-08-07T16:03:06;21.90;99.90
20158;DHT22;10239;56.820;24.416;2023-08-07T16:05:36;21.80;99.90
20158;DHT22;10239;56.820;24.416;2023-08-07T16:08:05;21.60;99.90
20158;DHT22;10239;56.820;24.416;2023-08-07T16:10:35;21.60;99.90
20158;DHT22;10239;56.820;24.416;2023-08-07T16:13:04;21.50;99.90
20158;DHT22;10239;56.820;24.416;2023-08-07T16:15:32;21.60;99.90
20158;DHT22;10239;56.820;24.416;2023-08-07T16:18:00;21.50;99.90
20158;DHT22;10239;56.820;24.416;2023-08-07T16:20:29;21.50;99.90
20158;DHT22;10239;56.820;24.416;2023-08-07T16:22:56;21.50;99.90
20158;DHT22;10239;56.820;24.416;2023-08-07T16:25:24;21.60;99.90
20158;DHT22;10239;56.820;24.416;2023-08-07T16:27:52;21.50;99.90
20158;DHT22;10239;56.820;24.416;2023-08-07T16:30:19;21.50;99.90
20158;DHT22;10239;56.820;24.416;2023-08-07T16:32:47;21.50;99.90
20158;DHT22;10239;56.820;24.416;2023-08-07T16:35:14;21.30;99.90
20158;DHT22;10239;56.820;24.416;2023-08-07T16:37:43;21.10;99.90
20158;DHT22;10239;56.820;24.416;2023-08-07T16:40:12;20.90;99.90
20158;DHT22;10239;56.820;24.416;2023-08-07T16:42:39;20.60;99.90
20158;DHT22;10239;56.820;24.416;2023-08-07T16:45:07;20.40;99.90
20158;DHT22;10239;56.820;24.416;2023-08-07T16:47:35;20.50;99.90
20158;DHT22;10239;56.820;24.416;2023-08-07T16:50:03;20.50;99.90
20158;DHT22;10239;56.820;24.416;2023-08-07T16:52:31;20.80;99.90